Time,TemperatureF,DewpointF,PressureIn,WindDirection,WindDirectionDegrees,WindSpeedMPH,WindSpeedGustMPH,Humidity,HourlyPrecipIn,Conditions,Clouds,dailyrainin,SoftwareType,DateUTC
2013-01-13 00:03:00,33.7,30.2,30.18,SW,232,0.0,0.0,87,0.00,CLR,,0.00,WeatherDisplay:10.37,2013-01-13 08:03:00,
2013-01-13 00:08:00,33.5,30.0,30.18,SW,232,0.0,0.0,87,0.00,CLR,,0.00,WeatherDisplay:10.37,2013-01-13 08:08:00,
2013-01-13 00:13:00,33.2,29.8,30.18,SW,232,0.0,0.0,87,0.00,CLR,,0.00,WeatherDisplay:10.37,2013-01-13 08:13:00,
2013-01-13 00:18:00,33.0,29.6,30.18,SW,232,0.0,0.0,87,0.00,CLR,,0.00,WeatherDisplay:10.37,2013-01-13 08:18:00,
2013-01-13 00:23:00,32.8,29.6,30.18,SW,232,0.0,0.0,88,0.00,CLR,,0.00,WeatherDisplay:10.37,2013-01-13 08:23:00,
2013-01-13 00:28:00,32.7,29.5,30.18,SW,232,0.0,0.0,88,0.00,CLR,,0.00,WeatherDisplay:10.37,2013-01-13 08:28:00,
2013-01-13 00:33:00,32.7,29.8,30.18,SW,232,0.0,0.0,89,0.00,CLR,,0.00,WeatherDisplay:10.37,2013-01-13 08:33:00,
2013-01-13 00:38:00,32.6,29.7,30.18,SW,232,0.0,0.0,89,0.00,CLR,,0.00,WeatherDisplay:10.37,2013-01-13 08:38:00,
2013-01-13 00:43:00,32.4,29.5,30.18,SW,232,0.0,0.0,89,0.00,CLR,,0.00,WeatherDisplay:10.37,2013-01-13 08:43:00,
2013-01-13 00:48:00,32.2,29.3,30.18,SW,232,0.0,0.0,89,0.00,CLR,,0.00,WeatherDisplay:10.37,2013-01-13 08:48:00,
2013-01-13 00:53:00,32.1,29.5,30.18,SW,232,0.0,0.0,90,0.00,CLR,,0.00,WeatherDisplay:10.37,2013-01-13 08:53:00,
2013-01-13 00:58:00,32.0,29.4,30.18,SW,232,0.0,0.0,90,0.00,CLR,,0.00,WeatherDisplay:10.37,2013-01-13 08:58:00,
2013-01-13 01:03:00,31.7,29.1,30.18,SW,232,0.0,0.0,90,0.00,CLR,,0.00,WeatherDisplay:10.37,2013-01-13 09:03:00,
2013-01-13 01:08:00,31.8,29.7,30.19,SW,232,0.0,0.0,92,0.00,CLR,,0.00,WeatherDisplay:10.37,2013-01-13 09:08:00,
2013-01-13 01:13:00,32.0,29.9,30.19,South,190,0.0,0.0,92,0.00,CLR,,0.00,WeatherDisplay:10.37,2013-01-13 09:13:00,
2013-01-13 01:18:00,32.1,30.0,30.19,South,190,0.0,0.0,92,0.00,CLR,,0.00,WeatherDisplay:10.37,2013-01-13 09:18:00,
2013-01-13 01:23:00,32.0,29.9,30.19,South,190,0.0,0.0,92,0.00,CLR,,0.00,WeatherDisplay:10.37,2013-01-13 09:23:00,
2013-01-13 01:28:00,32.0,29.9,30.20,South,190,0.0,0.0,92,0.00,CLR,,0.00,WeatherDisplay:10.37,2013-01-13 09:28:00,
2013-01-13 01:33:00,31.8,29.5,30.20,South,190,0.0,0.0,91,0.00,CLR,,0.00,WeatherDisplay:10.37,2013-01-13 09:33:00,
2013-01-13 01:38:00,31.6,29.5,30.20,South,190,0.0,0.0,92,0.00,CLR,,0.00,WeatherDisplay:10.37,2013-01-13 09:38:00,
2013-01-13 01:43:00,31.6,29.5,30.19,South,190,0.0,0.0,92,0.00,CLR,,0.00,WeatherDisplay:10.37,2013-01-13 09:43:00,
2013-01-13 01:48:00,31.5,29.4,30.19,South,190,0.0,0.0,92,0.00,CLR,,0.00,WeatherDisplay:10.37,2013-01-13 09:48:00,
2013-01-13 01:53:00,31.2,28.9,30.19,South,190,0.0,0.0,91,0.00,CLR,,0.00,WeatherDisplay:10.37,2013-01-13 09:53:00,
2013-01-13 01:58:00,30.9,28.9,30.19,South,190,0.0,0.0,92,0.00,CLR,,0.00,WeatherDisplay:10.37,2013-01-13 09:58:00,
2013-01-13 02:03:00,30.8,28.8,30.19,South,190,0.0,0.0,92,0.00,CLR,,0.00,WeatherDisplay:10.37,2013-01-13 10:03:00,
2013-01-13 02:08:00,30.6,28.6,30.19,South,190,0.0,0.0,92,0.00,CLR,,0.00,WeatherDisplay:10.37,2013-01-13 10:08:00,
2013-01-13 02:13:00,30.6,28.6,30.19,South,190,0.0,0.0,92,0.00,CLR,,0.00,WeatherDisplay:10.37,2013-01-13 10:13:00,
2013-01-13 02:18:00,30.5,28.5,30.19,South,190,0.0,0.0,92,0.00,CLR,,0.00,WeatherDisplay:10.37,2013-01-13 10:18:00,
2013-01-13 02:23:00,30.2,28.2,30.20,South,190,0.0,0.0,92,0.00,CLR,,0.00,WeatherDisplay:10.37,2013-01-13 10:23:00,
2013-01-13 02:28:00,30.2,28.4,30.20,South,190,0.0,0.0,93,0.00,CLR,,0.00,WeatherDisplay:10.37,2013-01-13 10:28:00,
2013-01-13 02:33:00,30.3,28.5,30.20,South,190,0.0,0.0,93,0.00,CLR,,0.00,WeatherDisplay:10.37,2013-01-13 10:33:00,
2013-01-13 02:38:00,30.4,28.6,30.20,South,190,0.0,0.0,93,0.00,CLR,,0.00,WeatherDisplay:10.37,2013-01-13 10:38:00,
2013-01-13 02:43:00,30.3,28.5,30.19,South,190,0.0,0.0,93,0.00,CLR,,0.00,WeatherDisplay:10.37,2013-01-13 10:43:00,
2013-01-13 02:48:00,30.5,29.0,30.19,South,190,0.0,0.0,94,0.00,CLR,,0.00,WeatherDisplay:10.37,2013-01-13 10:48:00,
2013-01-13 02:53:00,30.7,29.2,30.19,South,190,0.0,0.0,94,0.00,CLR,,0.00,WeatherDisplay:10.37,2013-01-13 10:53:00,
2013-01-13 02:58:00,30.5,28.7,30.19,South,190,0.0,0.0,93,0.00,CLR,,0.00,WeatherDisplay:10.37,2013-01-13 10:58:00,
2013-01-13 03:03:00,30.2,28.4,30.19,South,190,0.0,0.0,93,0.00,CLR,,0.00,WeatherDisplay:10.37,2013-01-13 11:03:00,
2013-01-13 03:08:00,30.2,28.4,30.19,South,190,0.0,0.0,93,0.00,CLR,,0.00,WeatherDisplay:10.37,2013-01-13 11:08:00,
2013-01-13 03:13:00,30.0,28.2,30.19,South,190,0.0,0.0,93,0.00,CLR,,0.00,WeatherDisplay:10.37,2013-01-13 11:13:00,
2013-01-13 03:18:00,29.7,27.9,30.19,South,190,0.0,0.0,93,0.00,CLR,,0.00,WeatherDisplay:10.37,2013-01-13 11:18:00,
2013-01-13 03:23:00,29.7,27.9,30.20,South,190,0.0,0.0,93,0.00,CLR,,0.00,WeatherDisplay:10.37,2013-01-13 11:23:00,
2013-01-13 03:28:00,29.6,27.8,30.20,South,190,0.0,0.0,93,0.00,CLR,,0.00,WeatherDisplay:10.37,2013-01-13 11:28:00,
2013-01-13 03:33:00,29.5,27.7,30.20,South,190,0.0,0.0,93,0.00,CLR,,0.00,WeatherDisplay:10.37,2013-01-13 11:33:00,
2013-01-13 03:38:00,29.2,27.4,30.20,South,190,0.0,0.0,93,0.00,CLR,,0.00,WeatherDisplay:10.37,2013-01-13 11:38:00,
2013-01-13 03:43:00,29.0,27.2,30.19,South,190,0.0,0.0,93,0.00,CLR,,0.00,WeatherDisplay:10.37,2013-01-13 11:43:00,
2013-01-13 03:48:00,28.8,27.0,30.19,South,190,0.0,0.0,93,0.00,CLR,,0.00,WeatherDisplay:10.37,2013-01-13 11:48:00,
2013-01-13 03:53:00,28.7,26.9,30.19,South,190,0.0,0.0,93,0.00,CLR,,0.00,WeatherDisplay:10.37,2013-01-13 11:53:00,
2013-01-13 03:58:00,28.8,27.3,30.19,South,191,0.0,0.0,94,0.00,CLR,,0.00,WeatherDisplay:10.37,2013-01-13 11:58:00,
2013-01-13 04:03:00,28.6,26.8,30.19,South,190,0.0,0.0,93,0.00,CLR,,0.00,WeatherDisplay:10.37,2013-01-13 12:03:00,
2013-01-13 04:08:00,28.3,26.5,30.19,South,190,0.0,0.0,93,0.00,CLR,,0.00,WeatherDisplay:10.37,2013-01-13 12:08:00,
2013-01-13 04:13:00,28.1,26.3,30.19,South,190,0.0,0.0,93,0.00,CLR,,0.00,WeatherDisplay:10.37,2013-01-13 12:13:00,
2013-01-13 04:18:00,28.0,26.5,30.19,South,190,0.0,0.0,94,0.00,CLR,,0.00,WeatherDisplay:10.37,2013-01-13 12:18:00,
2013-01-13 04:23:00,28.1,26.6,30.19,South,190,0.0,0.0,94,0.00,CLR,,0.00,WeatherDisplay:10.37,2013-01-13 12:23:00,
2013-01-13 04:28:00,28.0,26.5,30.19,South,190,0.0,0.0,94,0.00,CLR,,0.00,WeatherDisplay:10.37,2013-01-13 12:28:00,
2013-01-13 04:33:00,27.8,26.3,30.19,South,190,0.0,0.0,94,0.00,CLR,,0.00,WeatherDisplay:10.37,2013-01-13 12:33:00,
2013-01-13 04:38:00,27.7,26.2,30.19,South,190,0.0,0.0,94,0.00,CLR,,0.00,WeatherDisplay:10.37,2013-01-13 12:38:00,
2013-01-13 04:43:00,27.8,26.3,30.18,South,190,0.0,0.0,94,0.00,CLR,,0.00,WeatherDisplay:10.37,2013-01-13 12:43:00,
2013-01-13 04:48:00,28.0,26.5,30.18,South,190,0.0,0.0,94,0.00,CLR,,0.00,WeatherDisplay:10.37,2013-01-13 12:48:00,
2013-01-13 04:53:00,27.9,26.4,30.18,South,190,0.0,0.0,94,0.00,CLR,,0.00,WeatherDisplay:10.37,2013-01-13 12:53:00,
2013-01-13 04:58:00,27.7,26.2,30.18,South,190,0.0,0.0,94,0.00,CLR,,0.00,WeatherDisplay:10.37,2013-01-13 12:58:00,
2013-01-13 05:03:00,27.6,26.1,30.18,South,190,0.0,0.0,94,0.00,CLR,,0.00,WeatherDisplay:10.37,2013-01-13 13:03:00,
2013-01-13 05:08:00,27.6,26.1,30.18,South,190,0.0,0.0,94,0.00,CLR,,0.00,WeatherDisplay:10.37,2013-01-13 13:08:00,
2013-01-13 05:13:00,27.4,25.9,30.19,South,191,0.0,0.0,94,0.00,CLR,,0.00,WeatherDisplay:10.37,2013-01-13 13:13:00,
2013-01-13 05:18:00,27.2,25.7,30.19,South,190,0.0,0.0,94,0.00,CLR,,0.00,WeatherDisplay:10.37,2013-01-13 13:18:00,
2013-01-13 05:23:00,27.1,25.6,30.19,South,190,0.0,0.0,94,0.00,CLR,,0.00,WeatherDisplay:10.37,2013-01-13 13:23:00,
2013-01-13 05:28:00,27.1,25.9,30.19,South,190,0.0,0.0,95,0.00,CLR,,0.00,WeatherDisplay:10.37,2013-01-13 13:28:00,
2013-01-13 05:33:00,27.0,25.5,30.19,South,190,0.0,0.0,94,0.00,CLR,,0.00,WeatherDisplay:10.37,2013-01-13 13:33:00,
2013-01-13 05:38:00,26.9,25.4,30.19,South,190,0.0,0.0,94,0.00,CLR,,0.00,WeatherDisplay:10.37,2013-01-13 13:38:00,
2013-01-13 05:43:00,27.0,25.8,30.20,South,190,0.0,0.0,95,0.00,CLR,,0.00,WeatherDisplay:10.37,2013-01-13 13:43:00,
2013-01-13 05:48:00,27.3,26.1,30.20,South,190,0.0,0.0,95,0.00,CLR,,0.00,WeatherDisplay:10.37,2013-01-13 13:48:00,
2013-01-13 05:53:00,27.4,26.2,30.20,South,190,0.0,0.0,95,0.00,CLR,,0.00,WeatherDisplay:10.37,2013-01-13 13:53:00,
2013-01-13 05:58:00,27.5,26.3,30.20,South,190,0.0,0.0,95,0.00,CLR,,0.00,WeatherDisplay:10.37,2013-01-13 13:58:00,
2013-01-13 06:03:00,27.3,26.1,30.20,South,190,0.0,0.0,95,0.00,CLR,,0.00,WeatherDisplay:10.37,2013-01-13 14:03:00,
2013-01-13 06:08:00,27.3,26.1,30.21,South,190,0.0,0.0,95,0.00,CLR,,0.00,WeatherDisplay:10.37,2013-01-13 14:08:00,
2013-01-13 06:13:00,27.3,26.1,30.21,South,190,0.0,0.0,95,0.00,CLR,,0.00,WeatherDisplay:10.37,2013-01-13 14:13:00,
2013-01-13 06:18:00,27.3,26.1,30.22,South,190,0.0,0.0,95,0.00,CLR,,0.00,WeatherDisplay:10.37,2013-01-13 14:18:00,
2013-01-13 06:23:00,27.4,26.2,30.22,South,190,0.0,0.0,95,0.00,CLR,,0.00,WeatherDisplay:10.37,2013-01-13 14:23:00,
2013-01-13 06:28:00,27.6,26.4,30.23,South,190,0.0,0.0,95,0.00,CLR,,0.00,WeatherDisplay:10.37,2013-01-13 14:28:00,
2013-01-13 06:33:00,27.6,26.4,30.23,South,189,0.0,0.0,95,0.00,CLR,,0.00,WeatherDisplay:10.37,2013-01-13 14:33:00,
2013-01-13 06:38:00,27.5,26.3,30.23,South,190,0.0,0.0,95,0.00,CLR,,0.00,WeatherDisplay:10.37,2013-01-13 14:38:00,
2013-01-13 06:43:00,27.4,26.2,30.23,South,190,0.0,0.0,95,0.00,CLR,,0.00,WeatherDisplay:10.37,2013-01-13 14:43:00,
2013-01-13 06:48:00,27.2,26.0,30.23,South,190,0.0,0.0,95,0.00,CLR,,0.00,WeatherDisplay:10.37,2013-01-13 14:48:00,
2013-01-13 06:53:00,27.3,26.1,30.23,South,190,0.0,0.0,95,0.00,CLR,,0.00,WeatherDisplay:10.37,2013-01-13 14:53:00,
2013-01-13 06:58:00,27.3,26.1,30.24,South,190,0.0,0.0,95,0.00,CLR,,0.00,WeatherDisplay:10.37,2013-01-13 14:58:00,
2013-01-13 07:03:00,27.2,26.0,30.24,South,190,0.0,0.0,95,0.00,CLR,,0.00,WeatherDisplay:10.37,2013-01-13 15:03:00,
2013-01-13 07:08:00,27.1,25.9,30.24,South,189,0.0,0.0,95,0.00,CLR,,0.00,WeatherDisplay:10.37,2013-01-13 15:08:00,
2013-01-13 07:13:00,26.9,25.7,30.23,South,190,0.0,0.0,95,0.00,CLR,,0.00,WeatherDisplay:10.37,2013-01-13 15:13:00,
2013-01-13 07:18:00,26.7,25.5,30.24,South,190,0.0,0.0,95,0.00,CLR,,0.00,WeatherDisplay:10.37,2013-01-13 15:18:00,
2013-01-13 07:23:00,26.7,25.5,30.23,South,190,0.0,0.0,95,0.00,CLR,,0.00,WeatherDisplay:10.37,2013-01-13 15:23:00,
2013-01-13 07:28:00,26.7,25.5,30.23,South,190,0.0,0.0,95,0.00,CLR,,0.00,WeatherDisplay:10.37,2013-01-13 15:28:00,
2013-01-13 07:33:00,26.7,25.5,30.23,South,190,0.0,0.0,95,0.00,CLR,,0.00,WeatherDisplay:10.37,2013-01-13 15:33:00,
2013-01-13 07:38:00,26.8,25.6,30.23,South,190,0.0,0.0,95,0.00,CLR,,0.00,WeatherDisplay:10.37,2013-01-13 15:38:00,
2013-01-13 07:43:00,26.8,25.6,30.23,South,190,0.0,0.0,95,0.00,CLR,,0.00,WeatherDisplay:10.37,2013-01-13 15:43:00,
2013-01-13 07:48:00,27.0,25.8,30.24,South,190,0.0,0.0,95,0.00,CLR,,0.00,WeatherDisplay:10.37,2013-01-13 15:48:00,
2013-01-13 07:53:00,27.4,26.4,30.24,South,190,0.0,0.0,96,0.00,CLR,,0.00,WeatherDisplay:10.37,2013-01-13 15:53:00,
2013-01-13 07:58:00,27.8,26.8,30.24,South,190,0.0,0.0,96,0.00,CLR,,0.00,WeatherDisplay:10.37,2013-01-13 15:58:00,
2013-01-13 08:03:00,28.6,27.6,30.25,South,190,0.0,0.0,96,0.00,CLR,,0.00,WeatherDisplay:10.37,2013-01-13 16:03:00,
2013-01-13 08:08:00,29.1,28.1,30.25,South,190,0.0,0.0,96,0.00,CLR,,0.00,WeatherDisplay:10.37,2013-01-13 16:08:00,
2013-01-13 08:13:00,29.5,28.5,30.25,South,190,0.0,0.0,96,0.00,CLR,,0.00,WeatherDisplay:10.37,2013-01-13 16:13:00,
2013-01-13 08:18:00,29.9,28.9,30.25,South,190,0.0,0.0,96,0.00,CLR,,0.00,WeatherDisplay:10.37,2013-01-13 16:18:00,
2013-01-13 08:23:00,30.2,29.2,30.25,South,190,0.0,0.0,96,0.00,CLR,,0.00,WeatherDisplay:10.37,2013-01-13 16:23:00,
2013-01-13 08:28:00,30.7,29.7,30.25,South,190,0.0,0.0,96,0.00,CLR,,0.00,WeatherDisplay:10.37,2013-01-13 16:28:00,
2013-01-13 08:33:00,31.3,30.3,30.25,South,189,0.0,0.0,96,0.00,CLR,,0.00,WeatherDisplay:10.37,2013-01-13 16:33:00,
2013-01-13 08:38:00,31.8,30.8,30.25,South,190,0.0,0.0,96,0.00,CLR,,0.00,WeatherDisplay:10.37,2013-01-13 16:38:00,
2013-01-13 08:43:00,32.3,31.5,30.26,South,190,0.0,0.0,97,0.00,CLR,,0.00,WeatherDisplay:10.37,2013-01-13 16:43:00,
2013-01-13 08:48:00,32.7,31.7,30.25,South,190,0.0,0.0,96,0.00,CLR,,0.00,WeatherDisplay:10.37,2013-01-13 16:48:00,
2013-01-13 08:53:00,33.1,32.1,30.26,South,191,0.0,0.0,96,0.00,CLR,,0.00,WeatherDisplay:10.37,2013-01-13 16:53:00,
2013-01-13 08:58:00,33.4,32.4,30.26,South,190,0.0,0.0,96,0.00,CLR,,0.00,WeatherDisplay:10.37,2013-01-13 16:58:00,
2013-01-13 09:03:00,33.9,32.6,30.26,South,190,0.0,0.0,95,0.00,CLR,,0.00,WeatherDisplay:10.37,2013-01-13 17:03:00,
2013-01-13 09:08:00,34.5,32.4,30.26,South,191,0.0,0.0,92,0.00,CLR,,0.00,WeatherDisplay:10.37,2013-01-13 17:08:00,
2013-01-13 09:13:00,35.3,32.1,30.26,South,191,0.0,0.0,88,0.00,CLR,,0.00,WeatherDisplay:10.37,2013-01-13 17:13:00,
2013-01-13 09:18:00,36.0,31.6,30.26,South,191,0.0,0.0,84,0.00,CLR,,0.00,WeatherDisplay:10.37,2013-01-13 17:18:00,
2013-01-13 09:23:00,36.5,32.1,30.26,SSW,197,0.0,0.0,84,0.00,CLR,,0.00,WeatherDisplay:10.37,2013-01-13 17:23:00,
2013-01-13 09:28:00,37.2,32.5,30.25,SSE,162,0.0,0.0,83,0.00,CLR,,0.00,WeatherDisplay:10.37,2013-01-13 17:28:00,
2013-01-13 09:33:00,37.8,32.8,30.26,SW,228,1.1,1.1,82,0.00,CLR,,0.00,WeatherDisplay:10.37,2013-01-13 17:33:00,
2013-01-13 09:38:00,38.3,32.7,30.26,South,175,0.0,0.0,80,0.00,CLR,,0.00,WeatherDisplay:10.37,2013-01-13 17:38:00,
2013-01-13 09:43:00,38.7,32.7,30.25,SSW,203,0.0,0.0,79,0.00,CLR,,0.00,WeatherDisplay:10.37,2013-01-13 17:43:00,
2013-01-13 09:48:00,39.1,32.5,30.25,SW,215,0.0,0.0,77,0.00,CLR,,0.00,WeatherDisplay:10.37,2013-01-13 17:48:00,
2013-01-13 09:53:00,39.5,33.2,30.25,SE,137,1.1,0.0,78,0.00,CLR,,0.00,WeatherDisplay:10.37,2013-01-13 17:53:00,
2013-01-13 09:58:00,40.0,33.7,30.25,SE,136,0.0,0.0,78,0.00,CLR,,0.00,WeatherDisplay:10.37,2013-01-13 17:58:00,
2013-01-13 10:03:00,40.4,33.8,30.25,SW,215,0.0,0.0,77,0.00,CLR,,0.00,WeatherDisplay:10.37,2013-01-13 18:03:00,
2013-01-13 10:08:00,40.7,33.1,30.25,SSW,210,2.3,2.3,74,0.00,CLR,,0.00,WeatherDisplay:10.37,2013-01-13 18:08:00,
2013-01-13 10:13:00,41.1,33.8,30.24,SW,229,1.1,0.0,75,0.00,CLR,,0.00,WeatherDisplay:10.37,2013-01-13 18:13:00,
2013-01-13 10:18:00,41.5,33.8,30.24,SW,217,1.1,1.1,74,0.00,CLR,,0.00,WeatherDisplay:10.37,2013-01-13 18:18:00,
2013-01-13 10:23:00,41.9,33.5,30.24,WSW,243,2.3,2.3,72,0.00,CLR,,0.00,WeatherDisplay:10.37,2013-01-13 18:23:00,
2013-01-13 10:28:00,42.1,33.4,30.24,SSE,150,4.0,4.0,71,0.00,CLR,,0.00,WeatherDisplay:10.37,2013-01-13 18:28:00,
2013-01-13 10:33:00,42.1,33.0,30.24,SW,218,1.1,1.1,70,0.00,CLR,,0.00,WeatherDisplay:10.37,2013-01-13 18:33:00,
2013-01-13 10:38:00,42.5,33.8,30.23,SW,222,2.3,2.3,71,0.00,CLR,,0.00,WeatherDisplay:10.37,2013-01-13 18:38:00,
2013-01-13 10:43:00,42.8,33.3,30.23,SSW,203,3.5,3.5,69,0.00,CLR,,0.00,WeatherDisplay:10.37,2013-01-13 18:43:00,
2013-01-13 10:48:00,43.1,33.6,30.23,WNW,302,1.1,1.1,69,0.00,CLR,,0.00,WeatherDisplay:10.37,2013-01-13 18:48:00,
2013-01-13 10:53:00,43.3,33.1,30.22,SW,218,2.3,2.3,67,0.00,CLR,,0.00,WeatherDisplay:10.37,2013-01-13 18:53:00,
2013-01-13 10:58:00,43.5,34.0,30.22,SSW,207,1.1,1.1,69,0.00,CLR,,0.00,WeatherDisplay:10.37,2013-01-13 18:58:00,
2013-01-13 11:03:00,43.8,33.9,30.22,WSW,240,1.1,1.1,68,0.00,CLR,,0.00,WeatherDisplay:10.37,2013-01-13 19:03:00,
2013-01-13 11:08:00,44.2,34.3,30.21,SW,215,1.1,0.0,68,0.00,CLR,,0.00,WeatherDisplay:10.37,2013-01-13 19:08:00,
2013-01-13 11:13:00,44.5,34.2,30.21,SW,225,4.0,4.0,67,0.00,CLR,,0.00,WeatherDisplay:10.37,2013-01-13 19:13:00,
2013-01-13 11:18:00,44.7,34.4,30.20,South,186,1.1,1.1,67,0.00,CLR,,0.00,WeatherDisplay:10.37,2013-01-13 19:18:00,
2013-01-13 11:23:00,44.8,34.5,30.20,SSW,197,0.0,0.0,67,0.00,CLR,,0.00,WeatherDisplay:10.37,2013-01-13 19:23:00,
2013-01-13 11:28:00,45.2,34.5,30.20,SW,221,2.3,2.3,66,0.00,CLR,,0.00,WeatherDisplay:10.37,2013-01-13 19:28:00,
2013-01-13 11:33:00,45.3,34.2,30.20,SSW,194,2.3,2.3,65,0.00,CLR,,0.00,WeatherDisplay:10.37,2013-01-13 19:33:00,
2013-01-13 11:38:00,45.6,34.5,30.20,SSW,195,2.3,2.3,65,0.00,CLR,,0.00,WeatherDisplay:10.37,2013-01-13 19:38:00,
2013-01-13 11:43:00,45.7,34.6,30.20,WSW,257,1.1,1.1,65,0.00,CLR,,0.00,WeatherDisplay:10.37,2013-01-13 19:43:00,
2013-01-13 11:48:00,46.0,35.3,30.19,WNW,285,1.1,1.1,66,0.00,CLR,,0.00,WeatherDisplay:10.37,2013-01-13 19:48:00,
2013-01-13 11:53:00,46.2,35.5,30.19,WNW,285,2.3,2.3,66,0.00,CLR,,0.00,WeatherDisplay:10.37,2013-01-13 19:53:00,
2013-01-13 11:58:00,46.4,35.3,30.19,SE,146,1.1,1.1,65,0.00,CLR,,0.00,WeatherDisplay:10.37,2013-01-13 19:58:00,
2013-01-13 12:03:00,46.7,34.8,30.19,SSW,194,1.0,1.0,63,0.00,CLR,,0.00,WeatherDisplay:10.37,2013-01-13 20:03:00,
2013-01-13 12:08:00,46.8,34.9,30.19,SSW,210,0.0,0.0,63,0.00,CLR,,0.00,WeatherDisplay:10.37,2013-01-13 20:08:00,
2013-01-13 12:13:00,46.8,34.9,30.19,SSW,207,1.1,0.0,63,0.00,CLR,,0.00,WeatherDisplay:10.37,2013-01-13 20:13:00,
2013-01-13 12:18:00,46.9,35.4,30.18,West,263,1.1,1.1,64,0.00,CLR,,0.00,WeatherDisplay:10.37,2013-01-13 20:18:00,
2013-01-13 12:23:00,47.4,35.4,30.18,WSW,243,1.1,1.1,63,0.00,CLR,,0.00,WeatherDisplay:10.37,2013-01-13 20:23:00,
2013-01-13 12:28:00,47.8,35.0,30.18,WNW,284,3.5,3.5,61,0.00,CLR,,0.00,WeatherDisplay:10.37,2013-01-13 20:28:00,
2013-01-13 12:33:00,47.8,33.7,30.18,NW,317,2.3,2.3,58,0.00,CLR,,0.00,WeatherDisplay:10.37,2013-01-13 20:33:00,
2013-01-13 12:38:00,47.6,33.5,30.18,WSW,252,1.1,1.1,58,0.00,CLR,,0.00,WeatherDisplay:10.37,2013-01-13 20:38:00,
2013-01-13 12:43:00,47.9,34.7,30.18,SSW,207,1.1,1.1,60,0.00,CLR,,0.00,WeatherDisplay:10.37,2013-01-13 20:43:00,
2013-01-13 12:48:00,48.1,34.4,30.17,NNE,23,0.0,0.0,59,0.00,CLR,,0.00,WeatherDisplay:10.37,2013-01-13 20:48:00,
2013-01-13 12:53:00,48.7,34.1,30.18,West,269,1.1,1.1,57,0.00,CLR,,0.00,WeatherDisplay:10.37,2013-01-13 20:53:00,
2013-01-13 12:58:00,49.0,33.5,30.17,WSW,247,2.3,2.3,55,0.00,CLR,,0.00,WeatherDisplay:10.37,2013-01-13 20:58:00,
2013-01-13 13:03:00,48.8,33.3,30.17,WSW,253,3.5,3.5,55,0.00,CLR,,0.00,WeatherDisplay:10.37,2013-01-13 21:03:00,
2013-01-13 13:08:00,48.7,33.7,30.17,SSE,162,1.1,1.1,56,0.00,CLR,,0.00,WeatherDisplay:10.37,2013-01-13 21:08:00,
2013-01-13 13:13:00,48.8,34.2,30.17,SE,129,0.0,0.0,57,0.00,CLR,,0.00,WeatherDisplay:10.37,2013-01-13 21:13:00,
2013-01-13 13:18:00,49.3,34.7,30.17,NNE,18,1.0,1.0,57,0.00,CLR,,0.00,WeatherDisplay:10.37,2013-01-13 21:18:00,
2013-01-13 13:23:00,49.6,35.0,30.17,SSW,195,2.0,2.0,57,0.00,CLR,,0.00,WeatherDisplay:10.37,2013-01-13 21:23:00,
2013-01-13 13:28:00,49.4,33.4,30.17,SW,235,2.3,2.3,54,0.00,CLR,,0.00,WeatherDisplay:10.37,2013-01-13 21:28:00,
2013-01-13 13:33:00,49.6,34.5,30.17,WNW,300,1.1,1.1,56,0.00,CLR,,0.00,WeatherDisplay:10.37,2013-01-13 21:33:00,
2013-01-13 13:38:00,49.8,34.3,30.16,SW,232,0.0,0.0,55,0.00,CLR,,0.00,WeatherDisplay:10.37,2013-01-13 21:38:00,
2013-01-13 13:43:00,49.9,34.4,30.16,West,266,1.1,0.0,55,0.00,CLR,,0.00,WeatherDisplay:10.37,2013-01-13 21:43:00,
2013-01-13 13:48:00,49.6,34.1,30.16,West,269,1.1,1.1,55,0.00,CLR,,0.00,WeatherDisplay:10.37,2013-01-13 21:48:00,
2013-01-13 13:53:00,49.7,34.2,30.16,NW,313,3.5,3.5,55,0.00,CLR,,0.00,WeatherDisplay:10.37,2013-01-13 21:53:00,
2013-01-13 13:58:00,49.7,34.2,30.16,WSW,246,1.1,1.1,55,0.00,CLR,,0.00,WeatherDisplay:10.37,2013-01-13 21:58:00,
2013-01-13 14:03:00,49.7,33.7,30.16,NE,46,1.1,1.1,54,0.00,BKN,,0.00,WeatherDisplay:10.37,2013-01-13 22:03:00,
2013-01-13 14:08:00,50.1,34.5,30.16,West,267,3.5,3.5,55,0.00,BKN,,0.00,WeatherDisplay:10.37,2013-01-13 22:08:00,
2013-01-13 14:13:00,50.2,33.7,30.16,NNE,27,2.3,2.3,53,0.00,BKN,,0.00,WeatherDisplay:10.37,2013-01-13 22:13:00,
2013-01-13 14:18:00,49.7,33.7,30.16,North,6,3.5,3.5,54,0.00,BKN,,0.00,WeatherDisplay:10.37,2013-01-13 22:18:00,
2013-01-13 14:23:00,49.6,33.6,30.16,SSW,207,3.5,3.5,54,0.00,BKN,,0.00,WeatherDisplay:10.37,2013-01-13 22:23:00,
2013-01-13 14:28:00,49.6,33.6,30.15,South,188,1.1,1.1,54,0.00,BKN,,0.00,WeatherDisplay:10.37,2013-01-13 22:28:00,
2013-01-13 14:33:00,49.7,33.2,30.16,WSW,256,0.0,0.5,53,0.00,SCT,,0.00,WeatherDisplay:10.37,2013-01-13 22:33:00,
2013-01-13 14:38:00,49.0,33.1,30.16,SSW,193,1.1,1.1,54,0.00,SCT,,0.00,WeatherDisplay:10.37,2013-01-13 22:38:00,
2013-01-13 14:43:00,48.4,33.0,30.16,West,281,1.1,1.1,55,0.00,SCT,,0.00,WeatherDisplay:10.37,2013-01-13 22:43:00,
2013-01-13 14:48:00,48.2,33.2,30.16,NW,309,1.1,1.1,56,0.00,SCT,,0.00,WeatherDisplay:10.37,2013-01-13 22:48:00,
2013-01-13 14:53:00,48.4,33.4,30.16,SW,229,1.1,1.1,56,0.00,SCT,,0.00,WeatherDisplay:10.37,2013-01-13 22:53:00,
2013-01-13 14:58:00,48.7,33.7,30.16,SSW,194,1.1,1.1,56,0.00,SCT,,0.00,WeatherDisplay:10.37,2013-01-13 22:58:00,
2013-01-13 15:03:00,48.8,33.3,30.15,SSW,193,2.3,2.3,55,0.00,CLR,,0.00,WeatherDisplay:10.37,2013-01-13 23:03:00,
2013-01-13 15:08:00,48.8,33.3,30.15,WSW,238,2.3,2.3,55,0.00,CLR,,0.00,WeatherDisplay:10.37,2013-01-13 23:08:00,
2013-01-13 15:13:00,48.7,32.8,30.16,NW,319,2.3,2.3,54,0.00,CLR,,0.00,WeatherDisplay:10.37,2013-01-13 23:13:00,
2013-01-13 15:18:00,48.4,33.0,30.16,WNW,294,1.1,1.1,55,0.00,CLR,,0.00,WeatherDisplay:10.37,2013-01-13 23:18:00,
2013-01-13 15:23:00,48.3,32.9,30.15,West,279,1.1,0.0,55,0.00,CLR,,0.00,WeatherDisplay:10.37,2013-01-13 23:23:00,
2013-01-13 15:28:00,48.1,32.7,30.16,WNW,300,1.1,1.1,55,0.00,CLR,,0.00,WeatherDisplay:10.37,2013-01-13 23:28:00,
2013-01-13 15:33:00,47.9,32.9,30.16,WNW,300,0.0,0.0,56,0.00,CLR,,0.00,WeatherDisplay:10.37,2013-01-13 23:33:00,
2013-01-13 15:38:00,48.0,33.0,30.16,North,354,2.3,2.3,56,0.00,CLR,,0.00,WeatherDisplay:10.37,2013-01-13 23:38:00,
2013-01-13 15:43:00,47.9,32.9,30.16,WNW,300,1.1,1.1,56,0.00,CLR,,0.00,WeatherDisplay:10.37,2013-01-13 23:43:00,
2013-01-13 15:48:00,47.6,32.7,30.16,NNW,333,1.1,1.1,56,0.00,CLR,,0.00,WeatherDisplay:10.37,2013-01-13 23:48:00,
2013-01-13 15:53:00,47.3,32.8,30.16,West,271,2.0,2.0,57,0.00,CLR,,0.00,WeatherDisplay:10.37,2013-01-13 23:53:00,
2013-01-13 15:58:00,47.1,32.6,30.16,West,264,1.1,1.1,57,0.00,CLR,,0.00,WeatherDisplay:10.37,2013-01-13 23:58:00,
2013-01-13 16:03:00,46.9,32.9,30.16,WNW,283,3.5,3.5,58,0.00,CLR,,0.00,WeatherDisplay:10.37,2013-01-14 00:03:00,
2013-01-13 16:08:00,46.6,32.6,30.16,NW,316,3.5,3.5,58,0.00,CLR,,0.00,WeatherDisplay:10.37,2013-01-14 00:08:00,
2013-01-13 16:13:00,46.3,32.3,30.16,NNE,15,1.1,1.1,58,0.00,CLR,,0.00,WeatherDisplay:10.37,2013-01-14 00:13:00,
2013-01-13 16:18:00,46.1,32.1,30.15,West,276,1.1,1.1,58,0.00,CLR,,0.00,WeatherDisplay:10.37,2013-01-14 00:18:00,
2013-01-13 16:23:00,45.9,32.4,30.15,WSW,258,0.0,0.0,59,0.00,CLR,,0.00,WeatherDisplay:10.37,2013-01-14 00:23:00,
2013-01-13 16:28:00,45.7,32.6,30.16,West,274,1.1,1.1,60,0.00,CLR,,0.00,WeatherDisplay:10.37,2013-01-14 00:28:00,
2013-01-13 16:33:00,45.5,32.4,30.16,WSW,238,1.1,0.0,60,0.00,CLR,,0.00,WeatherDisplay:10.37,2013-01-14 00:33:00,
2013-01-13 16:38:00,45.3,32.6,30.16,North,356,2.3,2.3,61,0.00,CLR,,0.00,WeatherDisplay:10.37,2013-01-14 00:38:00,
2013-01-13 16:43:00,45.1,32.4,30.15,North,356,1.1,0.0,61,0.00,CLR,,0.00,WeatherDisplay:10.37,2013-01-14 00:43:00,
2013-01-13 16:48:00,44.8,32.6,30.15,North,356,1.1,0.0,62,0.00,CLR,,0.00,WeatherDisplay:10.37,2013-01-14 00:48:00,
2013-01-13 16:53:00,44.5,32.3,30.15,North,356,0.0,0.0,62,0.00,CLR,,0.00,WeatherDisplay:10.37,2013-01-14 00:53:00,
2013-01-13 16:58:00,44.2,32.4,30.15,North,350,0.0,0.0,63,0.00,CLR,,0.00,WeatherDisplay:10.37,2013-01-14 00:58:00,
2013-01-13 17:03:00,43.9,32.1,30.15,North,350,0.0,0.0,63,0.00,CLR,,0.00,WeatherDisplay:10.37,2013-01-14 01:03:00,
2013-01-13 17:08:00,43.5,32.1,30.15,North,350,0.0,0.0,64,0.00,CLR,,0.00,WeatherDisplay:10.37,2013-01-14 01:08:00,
2013-01-13 17:13:00,43.1,32.1,30.15,North,350,0.0,0.0,65,0.00,CLR,,0.00,WeatherDisplay:10.37,2013-01-14 01:13:00,
2013-01-13 17:18:00,42.5,32.3,30.15,North,350,0.0,0.0,67,0.00,CLR,,0.00,WeatherDisplay:10.37,2013-01-14 01:18:00,
2013-01-13 17:23:00,41.9,32.1,30.16,North,350,0.0,0.0,68,0.00,CLR,,0.00,WeatherDisplay:10.37,2013-01-14 01:23:00,
2013-01-13 17:28:00,41.2,32.2,30.16,North,350,0.0,0.0,70,0.00,CLR,,0.00,WeatherDisplay:10.37,2013-01-14 01:28:00,
2013-01-13 17:33:00,40.6,31.9,30.16,North,350,0.0,0.0,71,0.00,CLR,,0.00,WeatherDisplay:10.37,2013-01-14 01:33:00,
2013-01-13 17:38:00,40.0,31.7,30.16,North,350,0.0,0.0,72,0.00,CLR,,0.00,WeatherDisplay:10.37,2013-01-14 01:38:00,
2013-01-13 17:43:00,39.5,31.6,30.16,North,350,0.0,0.0,73,0.00,CLR,,0.00,WeatherDisplay:10.37,2013-01-14 01:43:00,
2013-01-13 17:48:00,38.9,31.0,30.16,North,350,0.0,0.0,73,0.00,CLR,,0.00,WeatherDisplay:10.37,2013-01-14 01:48:00,
2013-01-13 17:53:00,38.5,31.3,30.16,North,350,0.0,0.0,75,0.00,CLR,,0.00,WeatherDisplay:10.37,2013-01-14 01:53:00,
2013-01-13 17:58:00,38.0,31.1,30.16,North,350,0.0,0.0,76,0.00,CLR,,0.00,WeatherDisplay:10.37,2013-01-14 01:58:00,
2013-01-13 18:03:00,37.7,31.1,30.16,North,350,0.0,0.0,77,0.00,CLR,,0.00,WeatherDisplay:10.37,2013-01-14 02:03:00,
2013-01-13 18:08:00,37.3,31.1,30.16,North,350,0.0,0.0,78,0.00,CLR,,0.00,WeatherDisplay:10.37,2013-01-14 02:08:00,
2013-01-13 18:13:00,37.0,31.1,30.16,North,350,0.0,0.0,79,0.00,CLR,,0.00,WeatherDisplay:10.37,2013-01-14 02:13:00,
2013-01-13 18:18:00,36.9,31.6,30.16,North,350,0.0,0.0,81,0.00,CLR,,0.00,WeatherDisplay:10.37,2013-01-14 02:18:00,
2013-01-13 18:23:00,36.9,31.9,30.16,North,350,0.0,0.0,82,0.00,CLR,,0.00,WeatherDisplay:10.37,2013-01-14 02:23:00,
2013-01-13 18:28:00,36.7,31.7,30.16,North,349,0.0,0.0,82,0.00,CLR,,0.00,WeatherDisplay:10.37,2013-01-14 02:28:00,
2013-01-13 18:33:00,36.4,31.1,30.16,North,350,0.0,0.0,81,0.00,CLR,,0.00,WeatherDisplay:10.37,2013-01-14 02:33:00,
2013-01-13 18:38:00,36.2,31.5,30.16,North,350,0.0,0.0,83,0.00,CLR,,0.00,WeatherDisplay:10.37,2013-01-14 02:38:00,
2013-01-13 18:43:00,36.1,31.7,30.16,North,350,0.0,0.0,84,0.00,CLR,,0.00,WeatherDisplay:10.37,2013-01-14 02:43:00,
2013-01-13 18:48:00,36.1,31.7,30.16,North,350,0.0,0.0,84,0.00,CLR,,0.00,WeatherDisplay:10.37,2013-01-14 02:48:00,
2013-01-13 18:53:00,36.1,31.7,30.16,North,350,0.0,0.0,84,0.00,CLR,,0.00,WeatherDisplay:10.37,2013-01-14 02:53:00,
2013-01-13 18:58:00,36.0,31.3,30.16,North,350,0.0,0.0,83,0.00,CLR,,0.00,WeatherDisplay:10.37,2013-01-14 02:58:00,
2013-01-13 19:03:00,35.8,31.4,30.17,North,350,0.0,0.0,84,0.00,CLR,,0.00,WeatherDisplay:10.37,2013-01-14 03:03:00,
2013-01-13 19:08:00,35.7,31.3,30.17,North,350,0.0,0.0,84,0.00,CLR,,0.00,WeatherDisplay:10.37,2013-01-14 03:08:00,
2013-01-13 19:13:00,35.6,31.2,30.17,North,350,0.0,0.0,84,0.00,CLR,,0.00,WeatherDisplay:10.37,2013-01-14 03:13:00,
2013-01-13 19:18:00,35.5,31.4,30.17,North,350,0.0,0.0,85,0.00,CLR,,0.00,WeatherDisplay:10.37,2013-01-14 03:18:00,
2013-01-13 19:23:00,35.3,31.2,30.17,North,350,0.0,0.0,85,0.00,CLR,,0.00,WeatherDisplay:10.37,2013-01-14 03:23:00,
2013-01-13 19:28:00,35.2,31.4,30.17,North,350,0.0,0.0,86,0.00,CLR,,0.00,WeatherDisplay:10.37,2013-01-14 03:28:00,
2013-01-13 19:33:00,35.1,31.3,30.17,North,350,0.0,0.0,86,0.00,FEW,,0.00,WeatherDisplay:10.37,2013-01-14 03:33:00,
2013-01-13 19:38:00,35.1,31.3,30.17,North,350,0.0,0.0,86,0.00,FEW,,0.00,WeatherDisplay:10.37,2013-01-14 03:38:00,
2013-01-13 19:43:00,35.1,31.6,30.17,North,350,0.0,0.0,87,0.00,FEW,,0.00,WeatherDisplay:10.37,2013-01-14 03:43:00,
2013-01-13 19:48:00,35.1,31.6,30.17,North,350,0.0,0.0,87,0.00,FEW,,0.00,WeatherDisplay:10.37,2013-01-14 03:48:00,
2013-01-13 19:53:00,35.1,31.6,30.17,North,350,0.0,0.0,87,0.00,FEW,,0.00,WeatherDisplay:10.37,2013-01-14 03:53:00,
2013-01-13 19:58:00,35.0,31.5,30.17,North,350,0.0,0.0,87,0.00,FEW,,0.00,WeatherDisplay:10.37,2013-01-14 03:58:00,
2013-01-13 20:03:00,34.8,31.3,30.17,North,350,0.0,0.0,87,0.00,CLR,,0.00,WeatherDisplay:10.37,2013-01-14 04:03:00,
2013-01-13 20:08:00,34.5,31.0,30.17,North,350,0.0,0.0,87,0.00,CLR,,0.00,WeatherDisplay:10.37,2013-01-14 04:08:00,
2013-01-13 20:13:00,34.2,30.7,30.17,North,350,0.0,0.0,87,0.00,CLR,,0.00,WeatherDisplay:10.37,2013-01-14 04:13:00,
2013-01-13 20:18:00,34.0,30.5,30.17,North,350,0.0,0.0,87,0.00,CLR,,0.00,WeatherDisplay:10.37,2013-01-14 04:18:00,
2013-01-13 20:23:00,33.7,30.2,30.17,North,350,0.0,0.0,87,0.00,CLR,,0.00,WeatherDisplay:10.37,2013-01-14 04:23:00,
2013-01-13 20:28:00,33.7,30.5,30.17,North,350,0.0,0.0,88,0.00,CLR,,0.00,WeatherDisplay:10.37,2013-01-14 04:28:00,
2013-01-13 20:33:00,33.9,31.3,30.18,North,350,0.0,0.0,90,0.00,CLR,,0.00,WeatherDisplay:10.37,2013-01-14 04:33:00,
2013-01-13 20:38:00,34.0,31.4,30.18,North,350,0.0,0.0,90,0.00,CLR,,0.00,WeatherDisplay:10.37,2013-01-14 04:38:00,
2013-01-13 20:43:00,34.1,31.2,30.18,North,350,0.0,0.0,89,0.00,CLR,,0.00,WeatherDisplay:10.37,2013-01-14 04:43:00,
2013-01-13 20:48:00,34.0,31.1,30.18,North,350,0.0,0.0,89,0.00,CLR,,0.00,WeatherDisplay:10.37,2013-01-14 04:48:00,
2013-01-13 20:53:00,33.9,31.0,30.18,North,350,0.0,0.0,89,0.00,CLR,,0.00,WeatherDisplay:10.37,2013-01-14 04:53:00,
2013-01-13 20:58:00,33.6,30.7,30.18,North,350,0.0,0.0,89,0.00,CLR,,0.00,WeatherDisplay:10.37,2013-01-14 04:58:00,
2013-01-13 21:00:00,33.6,30.7,30.19,North,350,0.0,0.0,89,0.00,CLR,,0.00,WeatherDisplay:10.37,2013-01-14 05:00:00,
2013-01-13 21:02:00,33.5,30.6,30.19,North,350,0.0,0.0,89,0.00,SCT,,0.00,WeatherDisplay:10.37,2013-01-14 05:02:00,
2013-01-13 21:03:00,33.5,30.6,30.19,North,350,0.0,0.0,89,0.00,SCT,,0.00,WeatherDisplay:10.37,2013-01-14 05:03:00,
2013-01-13 21:08:00,33.5,30.9,30.19,North,350,0.0,0.0,90,0.00,SCT,,0.00,WeatherDisplay:10.37,2013-01-14 05:08:00,
2013-01-13 21:13:00,33.5,30.9,30.19,North,350,0.0,0.0,90,0.00,SCT,,0.00,WeatherDisplay:10.37,2013-01-14 05:13:00,
2013-01-13 21:18:00,33.5,30.9,30.19,North,350,0.0,0.0,90,0.00,SCT,,0.00,WeatherDisplay:10.37,2013-01-14 05:18:00,
2013-01-13 21:23:00,33.5,30.9,30.19,North,350,0.0,0.0,90,0.00,SCT,,0.00,WeatherDisplay:10.37,2013-01-14 05:23:00,
2013-01-13 21:28:00,33.5,31.2,30.19,North,350,0.0,0.0,91,0.00,SCT,,0.00,WeatherDisplay:10.37,2013-01-14 05:28:00,
2013-01-13 21:33:00,33.8,31.5,30.19,North,350,0.0,0.0,91,0.00,SCT,,0.00,WeatherDisplay:10.37,2013-01-14 05:33:00,
2013-01-13 21:38:00,34.4,32.0,30.19,North,350,0.0,0.0,91,0.00,SCT,,0.00,WeatherDisplay:10.37,2013-01-14 05:38:00,
2013-01-13 21:43:00,34.9,32.3,30.19,North,350,0.0,0.0,90,0.00,SCT,,0.00,WeatherDisplay:10.37,2013-01-14 05:43:00,
2013-01-13 21:48:00,35.3,32.4,30.20,North,350,0.0,0.0,89,0.00,OVC,,0.00,WeatherDisplay:10.37,2013-01-14 05:48:00,
2013-01-13 21:53:00,35.5,32.6,30.19,North,350,0.0,0.0,89,0.00,OVC,,0.00,WeatherDisplay:10.37,2013-01-14 05:53:00,
2013-01-13 21:58:00,35.6,32.7,30.19,North,350,0.0,0.0,89,0.00,OVC,,0.00,WeatherDisplay:10.37,2013-01-14 05:58:00,
2013-01-13 22:03:00,35.8,32.6,30.20,North,350,0.0,0.0,88,0.00,OVC,,0.00,WeatherDisplay:10.37,2013-01-14 06:03:00,
2013-01-13 22:08:00,35.9,32.4,30.20,North,350,0.0,0.0,87,0.00,OVC,,0.00,WeatherDisplay:10.37,2013-01-14 06:08:00,
2013-01-13 22:13:00,35.9,32.4,30.20,North,349,0.0,0.0,87,0.00,OVC,,0.00,WeatherDisplay:10.37,2013-01-14 06:13:00,
2013-01-13 22:18:00,35.7,32.2,30.20,North,350,0.0,0.0,87,0.00,OVC,,0.00,WeatherDisplay:10.37,2013-01-14 06:18:00,
2013-01-13 22:23:00,35.4,31.6,30.20,North,350,0.0,0.0,86,0.00,OVC,,0.00,WeatherDisplay:10.37,2013-01-14 06:23:00,
2013-01-13 22:28:00,35.1,31.6,30.20,North,350,0.0,0.0,87,0.00,OVC,,0.00,WeatherDisplay:10.37,2013-01-14 06:28:00,
2013-01-13 22:33:00,34.9,31.7,30.20,North,350,0.0,0.0,88,0.00,SCT,,0.00,WeatherDisplay:10.37,2013-01-14 06:33:00,
2013-01-13 22:38:00,34.7,31.5,30.20,North,350,0.0,0.0,88,0.00,SCT,,0.00,WeatherDisplay:10.37,2013-01-14 06:38:00,
2013-01-13 22:43:00,34.4,31.2,30.20,North,350,0.0,0.0,88,0.00,SCT,,0.00,WeatherDisplay:10.37,2013-01-14 06:43:00,
2013-01-13 22:48:00,34.1,30.9,30.20,North,349,0.0,0.0,88,0.00,SCT,,0.00,WeatherDisplay:10.37,2013-01-14 06:48:00,
2013-01-13 22:53:00,33.7,30.5,30.21,North,350,0.0,0.0,88,0.00,SCT,,0.00,WeatherDisplay:10.37,2013-01-14 06:53:00,
2013-01-13 22:58:00,33.4,30.2,30.21,North,350,0.0,0.0,88,0.00,SCT,,0.00,WeatherDisplay:10.37,2013-01-14 06:58:00,
2013-01-13 23:03:00,33.1,30.2,30.21,North,349,0.0,0.0,89,0.00,CLR,,0.00,WeatherDisplay:10.37,2013-01-14 07:03:00,
2013-01-13 23:08:00,32.9,30.0,30.21,North,350,0.0,0.0,89,0.00,CLR,,0.00,WeatherDisplay:10.37,2013-01-14 07:08:00,
2013-01-13 23:13:00,32.9,30.3,30.21,North,350,0.0,0.0,90,0.00,CLR,,0.00,WeatherDisplay:10.37,2013-01-14 07:13:00,
2013-01-13 23:18:00,32.8,30.2,30.21,North,350,0.0,0.0,90,0.00,CLR,,0.00,WeatherDisplay:10.37,2013-01-14 07:18:00,
2013-01-13 23:23:00,32.6,30.0,30.22,North,350,0.0,0.0,90,0.00,CLR,,0.00,WeatherDisplay:10.37,2013-01-14 07:23:00,
2013-01-13 23:28:00,32.5,30.2,30.22,North,350,0.0,0.0,91,0.00,CLR,,0.00,WeatherDisplay:10.37,2013-01-14 07:28:00,
2013-01-13 23:33:00,32.3,30.0,30.22,North,350,0.0,0.0,91,0.00,CLR,,0.00,WeatherDisplay:10.37,2013-01-14 07:33:00,
2013-01-13 23:38:00,32.2,29.9,30.22,North,350,0.0,0.0,91,0.00,CLR,,0.00,WeatherDisplay:10.37,2013-01-14 07:38:00,
2013-01-13 23:43:00,32.0,29.7,30.22,North,350,0.0,0.0,91,0.00,CLR,,0.00,WeatherDisplay:10.37,2013-01-14 07:43:00,
2013-01-13 23:48:00,31.8,29.5,30.22,North,350,0.0,0.0,91,0.00,CLR,,0.00,WeatherDisplay:10.37,2013-01-14 07:48:00,
2013-01-13 23:53:00,31.7,29.6,30.22,North,350,0.0,0.0,92,0.00,CLR,,0.00,WeatherDisplay:10.37,2013-01-14 07:53:00,
2013-01-13 23:58:00,31.5,29.2,30.22,North,350,0.0,0.0,91,0.00,CLR,,0.00,WeatherDisplay:10.37,2013-01-14 07:58:00,